Flight Sim Network - KCRE Airport Info

    KCRE (Grand Strand Airport)  Login to use Map Selector
   

  RUNWAY INFORMATION    |    Airport Elevation : 32ft    |    LAT : 33.8116989136  /  LON : -78.7238998413
Runway Number 05 / 23 Runway Width 100' Runway Length 5996'
Lighted Runway Yes Runway StatusOpen Runway Surface Asphalt
  CLOSE ALTERNATE AIRPORTS
ICAODistanceAirport NameLongest RWRW SurfaceMAP
SC2110NMMyrtle Beach Hardee Airpark3300FTDirt
KMYR13NMMyrtle Beach International Airport9520FTAsphalt
60J15NMOcean Isle4000FTAsphalt
SC2817NMJavika Airport3000FTDirt
5J918NMTwin City3694FTAsphalt
KHYW20NMConway Horry County Airport4405FTAsphalt
S7927NMGreen Sea Airport3600FTDirt
NC4327NMBear Pen Airport6000FTDirt
KCPC28NMColumbus County Municipal Airport5501FTAsphalt
KSUT33NMBrunswick County Airport4003FTAsphalt
  AIRPORT WEATHER
86°F | 30°C
Temperature
74%
Humidity
30" | 1020mb
Pressure
10sm
Visibility
VFR
Flight Rules
CLR
Initial Clouds
FAIR
Conditions
Wind Info
7/23/24 17:53Z
Updated

KCRE 231753Z 20010KT 10SM CLR 30/25 A3012 RMK AO1 SLP200 60002 T03000250 10311 20278 58002
  AIRPORT FREQUENCIES
NameFrequency
ATIS119.620
CLEARANCE122.100
GROUND121.800
TOWER124.600
UNICOM122.950
MULTICOM124.600
APPROACH119.200
DEPARTURE119.200
ICRE (RWY 23)111.700

Powered by Virtual Airlines Manager